Suwanmongkol, Darika
ThailandWomanBorn 19882022 – 2026Runner id 1707959
Events
54
2022 – 2026
Best pace
11.250
km/h · 2023
Best finish
2nd
of 240 · 2022
Distance raced
3,918
km · splits not double-counted
Pace over time
km/h · higher is faster
Pace over time: 54 races from 2022 to 2026, ranging from 2.42 to 11.29 kilometres per hour, where higher is faster. A second, age-graded series is drawn above it; the gap between the two is the age credit.
- Actual pace
- Age-graded pace
Results
| Date | Event | Distance | Result | Pace km/h | Placing |
|---|---|---|---|---|---|
| 2022-01-09 | 50km | 6:14:38 h | 8.008 | 18/623 | |
| 2022-03-27 | Wangchan50Thailand | 50km | 6:48:19 h | 7.347 | 5/135 |
| 2022-06-05 | Khaokho MarathonThailand | 45km | 4:04:01 h | 11.065 | 38/1390 |
| 2022-08-06 | CM6 Run - CM3 64 KmThailand | 62.9km | 9:22:06 h | 6.714 | 2/240 |
| 2022-10-02 | Legendary Trail Series KMK50Thailand | 50km | 6:07:35 h | 8.161 | 7/265 |
| 2022-12-10 | Thailand by UTMB - 55kmThailand | 55km | 7:24:51 h | 7.418 | 25/1060 |
| 2023-01-08 | 50km | 5:52:15 h | 8.517 | 7/417 | |
| 2023-01-14 | Kheknoi Ultra Trail 70 kmThailand | 70km | 9:26:32 h | 7.414 | 3/31 |
| 2023-05-21 | 10h | 102.900 km | 10.290 | 4/189 | |
| 2023-06-04 | Khaokho MarathonThailand | 45km | 4:00:00 h | 11.250 | 18/1467 |
| 2023-06-18 | Thailand 100K Ultra MarathonThailand | 100km | 9:10:59 h | 10.890 | 10/434 |
| 2023-06-25 | Ultra-Trail Khao KhoThailand | 48km | 5:36:37 h | 8.556 | 9/143 |
| 2023-07-09 | Khao Lang Baan TrailThailand | 55km | 8:55:29 h | 6.163 | 3/118 |
| 2023-07-22 | CM6 Run - CM4 80 KmThailand | 80km | 12:57:42 h | 6.172 | 6/163 |
| 2023-08-06 | Spartan TrailThailand | 50km | 6:00:47 h | 8.315 | 4/114 |
| 2023-08-31 | 56km | 8:51:19 h | 6.324 | 605/1643 | |
| 2023-09-17 | Mae Hong Son Cross CountryThailand | 46km | 5:49:41 h | 7.893 | 7/119 |
| 2023-09-24 | SAKAD Scenic TrailThailand | 54km | 7:29:40 h | 7.205 | 12/156 |
| 2023-11-11 | 100km | 9:53:24 h | 10.111 | 4/20 | |
| 2023-12-09 | 96.5km | 17:14:39 h | 5.596 | 99/611 | |
| 2024-01-13 | Kheknoi Ultra Trail 100 kmThailand | 100km | 18:46:35 h | 5.326 | 4/68 |
| 2024-01-20 | 100km | 14:08:30 h | 7.071 | 5/50 | |
| 2024-05-05 | 10h | 90.300 km | 9.030 | 10/191 | |
| 2024-06-02 | Khaokho MarathonThailand | 45km | 5:07:14 h | 8.788 | 30/1200 |
| 2024-06-15 | My Home Trail Mae ChaemThailand | 50km | 7:14:30 h | 6.904 | 8/120 |
| 2024-06-30 | Luang Phayao Mountain RunThailand | 54km | 12:14:29 h | 4.411 | 11/47 |
| 2024-07-07 | Khao Lang Baan TrailThailand | 60km | 10:33:13 h | 5.685 | 3/90 |
| 2024-07-14 | 50km | 8:21:43 h | 5.979 | 8/140 | |
| 2024-08-03 | CM6 Run - CM5 100 KmThailand | 100km | 17:28:39 h | 5.722 | 9/162 |
| 2024-08-24 | Lampang 100Thailand | 100km | 20:37:20 h | 4.849 | 12/37 |
| 2024-09-21 | Utdm 65 Ultra-Trail Doi MuserThailand | 65km | 11:26:12 h | 5.683 | 3/32 |
| 2024-09-29 | Koh Chang TrailThailand | 55km | 10:26:30 h | 5.267 | 7/30 |
| 2024-10-06 | Inthanon SkyraceThailand | 46km | 7:24:38 h | 6.207 | 18/79 |
| 2024-10-12 | Pong Yaeng 55 Km Trail (NPT55)Thailand | 55km | 8:30:02 h | 6.470 | 6/221 |
| 2024-11-02 | Tanaosri Trail 100kmThailand | 100km | 20:39:31 h | 4.841 | 13/111 |
| 2024-12-07 | 53km | 6:47:10 h | 7.810 | 125/2166 | |
| 2024-12-14 | The North Face 50 Hong KongHong Kong | 56.1km | 8:29:41 h | 6.604 | 63/852 |
| 2025-01-18 | 100km | 13:45:21 h | 7.270 | 7/45 | |
| 2025-01-25 | 24h | 173.300 km | 7.221 | 6/144 | |
| 2025-02-08 | Ultra Trail Savannah 104kmThailand | 104km | 13:43:07 h | 7.581 | 3/81 |
| 2025-05-04 | 10h | 67.200 km | 6.720 | 136/264 | |
| 2025-06-01 | Khaokho MarathonThailand | 45km | 4:56:25 h | 9.109 | 20/808 |
| 2025-06-21 | 105km | 23:08:53 h | 4.536 | 187/455 | |
| 2025-08-09 | CM6 Run - CM6 135 KmThailand | 135km | 30:39:55 h | 4.402 | 22/94 |
| 2025-09-27 | Chiangmai 24 Hr ChallengeThailand | 24h | 57.964 km | 2.415 | 72/76 |
| 2025-10-17 | Pong Yaeng 70 Km Trail (RTC70)Thailand | 70km | 11:21:21 h | 6.164 | 4/62 |
| 2025-11-15 | Pocari Sweat Trail 100kmThailand | 100km | 18:45:14 h | 5.332 | 16/260 |
| 2025-12-14 | 50km | 7:07:47 h | 7.013 | 21/210 | |
| 2025-12-20 | Tanaosri Trail 100kmThailand | 100km | 20:23:34 h | 4.904 | 14/124 |
| 2026-01-24 | Kheknoi Ultra Trail 100 kmThailand | 100km | 19:41:07 h | 5.080 | 6/41 |
Showing 1–50 of 54